Agstapha, Azerbaijan

3:23 PM AZST on July 28, 2015 (GMT +0500)
Tbilisi International Air | | Change Station
CLOSE
Current Station
Airport
Location: Tbilisi International Air,
Elevation: 1624 ft
Nearby Weather Stations

Elev 1624 ft 41.67 °N, 44.95 °E | Updated 23 minutes ago

Clear
Clear
93 °F
Feels Like 91 °F
N
6
Wind Variable Wind from Variable

Today
High -- | Low -- °F
--% Chance of Precip.
Yesterday
High -- | Low -- °F
Precip. -- in
6:49 AM 9:19 PM
Waxing Gibbous, 88% visible
Pressure 29.80 in
Visibility -9999.0 miles
Clouds
Heat Index 91 °F
Dew Point 54 °F
Humidity 26%
Rainfall 0.00 in
Snow Depth Not available.
UV Not available.
Pollen Not available.
Air Quality Not available.
Flu Activity Not available.
METAR UGTB 281000Z VRB05KT CAVOK 34/12 Q1009 R31L/CLRD80 NOSIG

More Conditions Fewer Conditions

Pressure 29.80 in
Visibility -9999.0 miles
Clouds
Heat Index 91 °F
Dew Point 54 °F
Humidity 26%
Rainfall 0.00 in
Snow Depth Not available.
UV Not available.
Pollen Not available.
Air Quality Not available.
Flu Activity Not available.
METAR UGTB 281000Z VRB05KT CAVOK 34/12 Q1009 R31L/CLRD80 NOSIG

More Conditions Fewer Conditions

10-Day Weather Forecast

×

Almanac

Astronomy

Jul. 28, 2015 Rise Set
Actual Time
Civil Twilight
Nautical Twilight
Astronomical Twilight
Moon
Length of Visible Light
Length of Day
Tomorrow will be .
, % of the Moon is Illuminated

Today's Extremes

Country Highs Country Lows

Community

WunderPhotos

Upload Photos

1,841,800 photos uploaded!

WunderBlogs® & News

Nearby

Air Quality

  Air Quality AQ Index Pollutant
Not available.

Snow Depth

Station Depth Elevation

Earthquake Activity

City Distance Mag. Time & Date
Minimum magnitude displayed is 2.5.

Coastal Water Temperatures

Place Temperature

Stations

Nearby Weather Stations

Station Location Temp. Windchill Dew Point Humidity Wind Precip. Elev Updated Type